Terminal Aerodrome Forecast
Issued by NWS Grand Forks, ND

Home | Current Version | Previous Version | Text Only | Print | Product List | Glossary Off
Versions: 1 2 3 4 5 6 7 8 9 10 11 12 13

000
FTUS43 KFGF 071100
TAFFAR
TAF
KFAR 071120Z 0712/0812 27009KT P6SM SCT050 SCT100
     FM071600 30010KT P6SM SCT050
     FM071900 31012G18KT P6SM VCTS BKN050CB
     FM080300 30009KT P6SM SCT050=

USA.gov is the U.S. government's official web portal to all federal, state and local government web resources and services.